createdAt,value
2023-03-31T00:01:28.915Z,3.00
2023-03-31T00:04:05.762Z,3.60
2023-03-31T00:06:41.868Z,3.20
2023-03-31T00:09:16.059Z,3.10
2023-03-31T00:11:45.444Z,3.10
2023-03-31T00:14:14.109Z,3.40
2023-03-31T00:16:42.413Z,4.00
2023-03-31T00:19:18.153Z,3.70
2023-03-31T00:21:51.516Z,3.40
2023-03-31T00:24:19.898Z,4.00
2023-03-31T00:26:48.173Z,3.90
2023-03-31T00:29:16.522Z,4.70
2023-03-31T00:31:44.760Z,4.80
2023-03-31T00:34:13.120Z,4.00
2023-03-31T00:36:47.627Z,4.40
2023-03-31T00:39:18.160Z,3.90
2023-03-31T00:41:46.924Z,3.70
2023-03-31T00:44:23.155Z,4.10
2023-03-31T00:46:55.342Z,3.40
2023-03-31T00:49:26.339Z,3.50
2023-03-31T00:51:55.610Z,3.80
2023-03-31T00:54:25.536Z,3.60
2023-03-31T00:56:55.668Z,3.80
2023-03-31T00:59:27.719Z,3.40
2023-03-31T01:01:59.375Z,3.70
2023-03-31T01:04:31.055Z,3.10
2023-03-31T01:07:09.437Z,3.80
2023-03-31T01:09:39.109Z,3.30
2023-03-31T01:12:09.255Z,3.60
2023-03-31T01:14:37.757Z,3.60
2023-03-31T01:17:09.934Z,3.50
2023-03-31T01:19:56.968Z,3.70
2023-03-31T01:22:46.815Z,2.90
2023-03-31T01:25:34.045Z,3.20
2023-03-31T01:28:30.105Z,3.60
2023-03-31T01:31:27.305Z,3.50
2023-03-31T01:34:18.216Z,3.40
2023-03-31T01:36:49.126Z,3.20
2023-03-31T01:39:41.881Z,3.50
2023-03-31T01:42:20.205Z,2.90
2023-03-31T01:44:57.898Z,3.70
2023-03-31T01:47:31.829Z,3.60
2023-03-31T01:50:05.947Z,3.50
2023-03-31T01:52:46.658Z,3.50
2023-03-31T01:55:19.587Z,3.40
2023-03-31T01:57:55.113Z,3.40
2023-03-31T02:00:29.613Z,3.10
2023-03-31T02:03:18.195Z,3.50
2023-03-31T02:05:49.438Z,3.70
2023-03-31T02:08:46.389Z,3.60
2023-03-31T02:11:14.746Z,3.90
2023-03-31T02:16:19.192Z,3.80
2023-03-31T02:18:48.439Z,3.90
2023-03-31T02:21:16.716Z,3.90
2023-03-31T02:23:45.625Z,4.30
2023-03-31T02:26:22.056Z,4.70
2023-03-31T02:28:50.904Z,3.90
2023-03-31T02:31:24.170Z,4.00
2023-03-31T02:33:53.618Z,4.00
2023-03-31T02:36:22.064Z,4.20
2023-03-31T02:39:00.930Z,4.20
2023-03-31T02:41:29.852Z,4.50
2023-03-31T02:43:58.184Z,4.50
2023-03-31T02:46:26.390Z,4.50
2023-03-31T02:48:56.464Z,4.40
2023-03-31T02:51:43.234Z,4.00
2023-03-31T02:54:20.417Z,4.40
2023-03-31T02:57:21.394Z,4.30
2023-03-31T03:00:12.713Z,4.50
2023-03-31T03:02:44.464Z,4.20
2023-03-31T03:05:28.707Z,4.10
2023-03-31T03:08:36.740Z,4.30
2023-03-31T03:11:05.097Z,4.00
2023-03-31T03:13:54.883Z,4.00
2023-03-31T03:16:29.177Z,4.70
2023-03-31T03:18:59.340Z,4.30
2023-03-31T03:21:32.326Z,4.60
2023-03-31T03:24:01.841Z,4.10
2023-03-31T03:26:30.348Z,4.30
2023-03-31T03:28:59.021Z,4.90
2023-03-31T03:31:27.274Z,4.50
2023-03-31T03:33:56.126Z,4.00
2023-03-31T03:36:24.539Z,4.50
2023-03-31T03:38:55.820Z,4.60
2023-03-31T03:41:24.065Z,4.20
2023-03-31T03:43:52.241Z,4.80
2023-03-31T03:46:20.517Z,4.70
2023-03-31T03:48:53.470Z,3.60
2023-03-31T03:51:22.277Z,5.00
2023-03-31T03:53:50.534Z,4.50
2023-03-31T03:56:18.997Z,4.60
2023-03-31T03:58:47.989Z,4.40
2023-03-31T04:01:22.951Z,4.50
2023-03-31T04:03:51.783Z,4.10
2023-03-31T04:06:20.012Z,4.50
2023-03-31T04:08:48.313Z,4.90
2023-03-31T04:11:20.144Z,4.50
2023-03-31T04:13:49.252Z,4.10
2023-03-31T04:16:17.433Z,3.80
2023-03-31T04:18:46.296Z,3.60
2023-03-31T04:21:23.191Z,3.60
2023-03-31T04:23:59.097Z,3.70
2023-03-31T04:26:39.226Z,3.90
2023-03-31T04:29:07.764Z,4.30
2023-03-31T04:31:38.921Z,4.10
2023-03-31T04:36:49.926Z,4.20
2023-03-31T04:39:24.524Z,4.90
2023-03-31T04:41:58.829Z,3.80
2023-03-31T04:44:27.493Z,3.40
2023-03-31T04:46:55.856Z,4.20
2023-03-31T04:49:25.266Z,4.20
2023-03-31T04:51:53.688Z,4.10
2023-03-31T04:54:26.249Z,4.20
2023-03-31T04:56:55.119Z,3.50
2023-03-31T04:59:23.474Z,3.70
2023-03-31T05:01:51.755Z,3.30
2023-03-31T05:04:21.293Z,3.30
2023-03-31T05:06:49.501Z,3.50
2023-03-31T05:09:17.972Z,3.90
2023-03-31T05:11:46.405Z,3.60
2023-03-31T05:14:14.674Z,3.50
2023-03-31T05:16:43.441Z,3.20
2023-03-31T05:19:11.834Z,3.50
2023-03-31T05:21:40.067Z,2.50
2023-03-31T05:24:08.834Z,2.70
2023-03-31T05:26:37.757Z,2.90
2023-03-31T05:29:07.309Z,2.60
2023-03-31T05:31:36.193Z,3.10
2023-03-31T05:34:04.481Z,2.50
2023-03-31T05:36:35.222Z,2.60
2023-03-31T05:39:12.206Z,2.50
2023-03-31T05:41:40.614Z,2.80
2023-03-31T05:44:09.030Z,2.60
2023-03-31T05:46:37.562Z,2.40
2023-03-31T05:49:07.231Z,2.30
2023-03-31T05:51:35.478Z,2.30
2023-03-31T05:54:03.787Z,2.50
2023-03-31T05:56:32.473Z,2.50
2023-03-31T05:59:01.545Z,2.90
2023-03-31T06:01:30.287Z,2.80
2023-03-31T06:03:58.732Z,2.60
2023-03-31T06:06:27.991Z,1.90
2023-03-31T06:08:58.288Z,3.20
2023-03-31T06:11:26.917Z,2.70
2023-03-31T06:13:55.245Z,2.70
2023-03-31T06:16:23.687Z,2.60
2023-03-31T06:18:53.697Z,2.70
2023-03-31T06:21:21.935Z,1.90
2023-03-31T06:23:50.532Z,2.40
2023-03-31T06:26:19.094Z,3.00
2023-03-31T06:28:48.122Z,2.90
2023-03-31T06:31:17.928Z,2.60
2023-03-31T06:33:46.486Z,2.50
2023-03-31T06:36:17.046Z,2.50
2023-03-31T06:38:46.373Z,2.50
2023-03-31T06:41:14.999Z,2.40
2023-03-31T06:43:43.194Z,2.70
2023-03-31T06:46:11.979Z,2.40
2023-03-31T06:48:41.508Z,2.70
2023-03-31T06:51:11.399Z,2.60
2023-03-31T06:53:39.930Z,3.10
2023-03-31T06:56:08.456Z,2.90
2023-03-31T06:58:37.944Z,3.00
2023-03-31T07:01:07.105Z,3.10
2023-03-31T07:03:44.271Z,2.90
2023-03-31T07:06:13.168Z,2.40
2023-03-31T07:08:41.369Z,2.40
2023-03-31T07:11:10.101Z,3.00
2023-03-31T07:13:42.234Z,3.90
2023-03-31T07:16:13.799Z,3.30
2023-03-31T07:18:42.411Z,3.20
2023-03-31T07:21:11.105Z,3.40
2023-03-31T07:23:40.000Z,2.70
2023-03-31T07:26:08.768Z,3.80
2023-03-31T07:28:37.190Z,3.10
2023-03-31T07:31:11.542Z,2.70
2023-03-31T07:33:41.138Z,2.80
2023-03-31T07:36:13.264Z,2.90
2023-03-31T07:38:47.033Z,3.40
2023-03-31T07:41:18.012Z,3.60
2023-03-31T07:43:46.463Z,2.80
2023-03-31T07:46:22.948Z,3.90
2023-03-31T07:48:51.629Z,3.20
2023-03-31T07:51:22.046Z,3.90
2023-03-31T07:53:52.625Z,2.80
2023-03-31T07:56:24.072Z,3.70
2023-03-31T07:58:57.508Z,3.70
2023-03-31T08:01:26.998Z,4.10
2023-03-31T08:03:56.109Z,3.70
2023-03-31T08:06:25.305Z,3.30
2023-03-31T08:08:53.472Z,4.30
2023-03-31T08:11:24.360Z,3.80
2023-03-31T08:13:52.988Z,3.90
2023-03-31T08:16:21.438Z,3.90
2023-03-31T08:18:50.722Z,4.00
2023-03-31T08:21:18.968Z,3.40
2023-03-31T08:23:55.202Z,3.50
2023-03-31T08:26:27.470Z,5.00
2023-03-31T08:28:57.940Z,4.30
2023-03-31T08:31:29.318Z,4.30
2023-03-31T08:33:57.697Z,4.20
2023-03-31T08:36:29.805Z,3.90
2023-03-31T08:38:58.263Z,4.80
2023-03-31T08:41:28.651Z,4.60
2023-03-31T08:43:57.071Z,4.20
2023-03-31T08:46:25.591Z,4.70
2023-03-31T08:48:57.778Z,4.90
2023-03-31T08:51:41.446Z,3.70
2023-03-31T08:54:17.947Z,4.50
2023-03-31T08:56:50.722Z,4.80
2023-03-31T08:59:31.774Z,4.20
2023-03-31T09:02:03.272Z,4.80
2023-03-31T09:04:53.583Z,4.80
2023-03-31T09:07:35.017Z,4.40
2023-03-31T09:10:29.104Z,4.40
2023-03-31T09:13:07.283Z,4.20
2023-03-31T09:15:56.286Z,4.00
2023-03-31T09:18:31.171Z,4.00
2023-03-31T09:21:12.012Z,4.30
2023-03-31T09:23:51.393Z,4.20
2023-03-31T09:26:46.984Z,4.50
2023-03-31T09:29:41.070Z,4.50
2023-03-31T09:32:14.497Z,4.40
2023-03-31T09:34:42.791Z,5.60
2023-03-31T09:37:11.597Z,5.00
2023-03-31T09:39:41.637Z,4.20
2023-03-31T09:42:13.602Z,4.60
2023-03-31T09:44:44.127Z,4.60
2023-03-31T09:47:39.201Z,5.00
2023-03-31T09:50:08.154Z,5.80
2023-03-31T09:52:44.693Z,5.30
2023-03-31T09:55:38.371Z,4.80
2023-03-31T09:58:08.745Z,5.20
2023-03-31T10:00:37.772Z,4.30
2023-03-31T10:03:09.150Z,4.40
2023-03-31T10:05:50.979Z,5.30
2023-03-31T10:08:25.813Z,5.50
2023-03-31T10:10:55.778Z,5.10
2023-03-31T10:13:37.220Z,4.90
2023-03-31T10:16:09.254Z,5.00
2023-03-31T10:18:43.158Z,4.80
2023-03-31T10:21:26.042Z,4.80
2023-03-31T10:23:55.089Z,4.90
2023-03-31T10:26:27.247Z,5.30
2023-03-31T10:31:34.066Z,4.80
2023-03-31T10:34:10.002Z,5.50
2023-03-31T10:36:39.837Z,5.50
2023-03-31T10:39:08.150Z,5.00
2023-03-31T10:41:36.890Z,5.30
2023-03-31T10:44:05.185Z,5.20
2023-03-31T10:46:44.337Z,5.80
2023-03-31T10:49:39.606Z,5.50
2023-03-31T10:52:25.855Z,6.20
2023-03-31T10:55:04.181Z,6.60
2023-03-31T10:57:39.246Z,5.60
2023-03-31T11:00:16.256Z,5.60
2023-03-31T11:03:03.785Z,5.40
2023-03-31T11:05:42.791Z,5.70
2023-03-31T11:08:13.789Z,5.90
2023-03-31T11:11:07.217Z,6.30
2023-03-31T11:13:48.733Z,7.20
2023-03-31T11:16:22.583Z,5.60
2023-03-31T11:18:54.118Z,5.90
2023-03-31T11:21:44.116Z,6.00
2023-03-31T11:24:15.882Z,5.00
2023-03-31T11:27:00.566Z,5.60
2023-03-31T11:29:36.632Z,6.00
2023-03-31T11:32:31.166Z,5.80
2023-03-31T11:35:37.501Z,7.80
2023-03-31T11:38:24.819Z,6.30
2023-03-31T11:41:08.518Z,6.10
2023-03-31T11:43:51.182Z,5.90
2023-03-31T11:46:25.060Z,5.70
2023-03-31T11:48:59.897Z,5.80
2023-03-31T11:51:52.890Z,6.00
2023-03-31T11:54:35.497Z,5.00
2023-03-31T11:57:12.859Z,5.40
2023-03-31T11:59:41.207Z,5.50
2023-03-31T12:02:14.965Z,5.10
2023-03-31T12:04:44.452Z,6.30
2023-03-31T12:07:25.088Z,5.20
2023-03-31T12:10:13.698Z,4.50
2023-03-31T12:13:02.533Z,5.80
2023-03-31T12:15:43.265Z,4.60
2023-03-31T12:18:18.160Z,5.20
2023-03-31T12:20:53.260Z,5.30
2023-03-31T12:23:28.227Z,4.80
2023-03-31T12:26:18.390Z,5.70
2023-03-31T12:28:56.108Z,5.70
2023-03-31T12:31:24.443Z,5.40
2023-03-31T12:33:59.358Z,4.80
2023-03-31T12:36:46.440Z,4.70
2023-03-31T12:39:36.714Z,5.90
2023-03-31T12:42:43.437Z,6.20
2023-03-31T12:45:18.829Z,5.90
2023-03-31T12:48:00.589Z,5.30
2023-03-31T12:50:47.467Z,5.00
2023-03-31T12:53:34.328Z,5.40
2023-03-31T12:56:02.727Z,5.20
2023-03-31T12:58:34.966Z,5.50
2023-03-31T13:01:22.788Z,4.50
2023-03-31T13:04:19.045Z,4.90
2023-03-31T13:06:54.751Z,5.80
2023-03-31T13:09:34.734Z,5.50
2023-03-31T13:12:08.847Z,5.40
2023-03-31T13:14:38.004Z,4.90
2023-03-31T13:17:25.207Z,4.80
2023-03-31T13:19:53.979Z,4.20
2023-03-31T13:22:33.043Z,4.50
2023-03-31T13:25:29.322Z,5.10
2023-03-31T13:27:58.691Z,4.50
2023-03-31T13:30:45.171Z,5.40
2023-03-31T13:33:36.123Z,5.80
2023-03-31T13:36:32.799Z,5.20
2023-03-31T13:39:46.427Z,5.30
2023-03-31T13:42:52.714Z,5.10
2023-03-31T13:45:34.143Z,4.60
2023-03-31T13:48:27.120Z,4.40
2023-03-31T13:51:09.232Z,5.20
2023-03-31T13:53:49.048Z,5.20
2023-03-31T13:56:28.482Z,4.90
2023-03-31T13:59:17.155Z,5.20
2023-03-31T14:02:00.724Z,5.10
2023-03-31T14:05:00.030Z,5.10
2023-03-31T14:07:41.493Z,5.00
2023-03-31T14:13:17.794Z,4.60
2023-03-31T14:15:54.770Z,4.20
2023-03-31T14:18:26.340Z,5.00
2023-03-31T14:21:17.956Z,4.70
2023-03-31T14:23:58.107Z,4.40
2023-03-31T14:26:46.819Z,4.70
2023-03-31T14:29:28.498Z,5.10
2023-03-31T14:31:59.819Z,5.10
2023-03-31T14:34:33.253Z,4.90
2023-03-31T14:37:05.389Z,4.70
2023-03-31T14:39:45.028Z,5.50
2023-03-31T14:42:17.508Z,4.40
2023-03-31T14:44:47.794Z,4.60
2023-03-31T14:47:17.042Z,5.30
2023-03-31T14:49:45.489Z,4.80
2023-03-31T14:52:21.326Z,5.10
2023-03-31T14:54:49.631Z,4.80
2023-03-31T14:57:22.796Z,4.70
2023-03-31T14:59:51.574Z,5.00
2023-03-31T15:02:34.039Z,4.80
2023-03-31T15:05:07.857Z,5.90
2023-03-31T15:07:41.167Z,5.50
2023-03-31T15:10:12.828Z,6.10
2023-03-31T15:12:48.794Z,5.00
2023-03-31T15:15:17.854Z,4.90
2023-03-31T15:17:47.017Z,4.90
2023-03-31T15:20:26.012Z,5.10
2023-03-31T15:22:56.567Z,5.60
2023-03-31T15:25:27.312Z,5.80
2023-03-31T15:27:59.122Z,6.00
2023-03-31T15:30:27.801Z,5.50
2023-03-31T15:33:07.553Z,5.40
2023-03-31T15:35:45.746Z,5.30
2023-03-31T15:38:18.850Z,6.60
2023-03-31T15:40:53.442Z,6.60
2023-03-31T15:43:32.469Z,6.40
2023-03-31T15:46:01.391Z,6.30
2023-03-31T15:48:33.982Z,5.80
2023-03-31T15:51:14.607Z,5.50
2023-03-31T15:53:47.774Z,5.10
2023-03-31T15:56:32.340Z,5.00
2023-03-31T15:59:05.554Z,5.50
2023-03-31T16:01:36.566Z,5.50
2023-03-31T16:04:13.282Z,5.20
2023-03-31T16:06:54.243Z,6.00
2023-03-31T16:09:38.292Z,5.60
2023-03-31T16:12:21.765Z,5.80
2023-03-31T16:14:57.563Z,5.60
2023-03-31T16:17:34.976Z,5.50
2023-03-31T16:20:24.813Z,6.20
2023-03-31T16:22:54.475Z,6.50
2023-03-31T16:25:24.082Z,5.90
2023-03-31T16:27:57.463Z,7.10
2023-03-31T16:30:42.496Z,8.90
2023-03-31T16:33:26.654Z,9.40
2023-03-31T16:35:59.000Z,9.60
2023-03-31T16:38:28.267Z,8.50
2023-03-31T16:40:57.464Z,9.40
2023-03-31T16:43:27.753Z,10.90
2023-03-31T16:46:00.732Z,12.10
2023-03-31T16:48:30.309Z,13.10
2023-03-31T16:51:04.407Z,14.00
2023-03-31T16:53:34.749Z,15.20
2023-03-31T16:56:04.340Z,17.10
2023-03-31T16:58:34.031Z,8.40
2023-03-31T17:01:02.274Z,9.30
2023-03-31T17:03:34.588Z,10.00
2023-03-31T17:06:11.522Z,8.30
2023-03-31T17:08:40.119Z,7.30
2023-03-31T17:11:12.507Z,8.40
2023-03-31T17:13:42.289Z,9.30
2023-03-31T17:16:17.591Z,7.60
2023-03-31T17:18:53.743Z,8.20
2023-03-31T17:21:22.255Z,7.60
2023-03-31T17:23:54.784Z,7.50
2023-03-31T17:26:23.787Z,6.90
2023-03-31T17:28:52.151Z,7.10
2023-03-31T17:31:21.275Z,7.40
2023-03-31T17:33:49.555Z,7.50
2023-03-31T17:36:22.432Z,7.10
2023-03-31T17:38:51.123Z,8.70
2023-03-31T17:41:19.317Z,10.60
2023-03-31T17:43:50.419Z,7.80
2023-03-31T17:46:19.252Z,7.70
2023-03-31T17:48:48.673Z,8.20
2023-03-31T17:51:18.558Z,8.90
2023-03-31T17:53:48.082Z,9.30
2023-03-31T17:56:17.221Z,10.80
2023-03-31T17:58:45.732Z,15.60
2023-03-31T18:01:14.624Z,10.90
2023-03-31T18:03:45.156Z,10.30
2023-03-31T18:06:19.390Z,8.70
2023-03-31T18:08:48.099Z,10.70
2023-03-31T18:11:16.589Z,11.40
2023-03-31T18:13:53.297Z,10.80
2023-03-31T18:16:21.835Z,11.90
2023-03-31T18:18:50.209Z,13.40
2023-03-31T18:21:18.676Z,12.20
2023-03-31T18:23:52.640Z,12.80
2023-03-31T18:26:23.898Z,14.70
2023-03-31T18:28:55.489Z,13.20
2023-03-31T18:31:26.973Z,13.50
2023-03-31T18:33:55.294Z,15.60
2023-03-31T18:36:23.934Z,16.20
2023-03-31T18:38:53.475Z,17.00
2023-03-31T18:41:23.196Z,14.30
2023-03-31T18:43:52.427Z,13.00
2023-03-31T18:46:21.179Z,12.40
2023-03-31T18:48:50.368Z,12.10
2023-03-31T18:51:18.781Z,12.60
2023-03-31T18:53:47.614Z,12.80
2023-03-31T18:56:16.399Z,12.30
2023-03-31T18:58:45.327Z,12.50
2023-03-31T19:01:13.740Z,12.40
2023-03-31T19:03:44.929Z,13.40
2023-03-31T19:06:14.060Z,13.80
2023-03-31T19:08:42.315Z,15.10
2023-03-31T19:11:15.458Z,14.90
2023-03-31T19:13:43.999Z,14.90
2023-03-31T19:16:32.293Z,15.60
2023-03-31T19:19:04.030Z,16.40
2023-03-31T19:21:33.372Z,15.60
2023-03-31T19:24:01.680Z,13.80
2023-03-31T19:26:30.820Z,13.80
2023-03-31T19:28:59.509Z,12.80
2023-03-31T19:31:38.476Z,13.20
2023-03-31T19:34:13.132Z,12.40
2023-03-31T19:36:41.851Z,12.00
2023-03-31T19:39:11.306Z,11.00
2023-03-31T19:41:40.001Z,13.20
2023-03-31T19:44:08.154Z,12.20
2023-03-31T19:46:36.462Z,12.20
2023-03-31T19:49:04.947Z,12.40
2023-03-31T19:51:34.890Z,14.10
2023-03-31T19:54:03.466Z,15.70
2023-03-31T19:56:33.567Z,15.40
2023-03-31T19:59:02.120Z,15.60
2023-03-31T20:01:30.710Z,14.20
2023-03-31T20:04:05.235Z,14.70
2023-03-31T20:06:34.294Z,13.80
2023-03-31T20:09:03.784Z,13.70
2023-03-31T20:11:32.984Z,13.90
2023-03-31T20:14:02.606Z,12.80
2023-03-31T20:16:31.296Z,11.00
2023-03-31T20:19:02.392Z,11.40
2023-03-31T20:21:32.332Z,11.10
2023-03-31T20:24:04.893Z,12.20
2023-03-31T20:26:33.778Z,11.30
2023-03-31T20:29:02.934Z,10.80
2023-03-31T20:31:34.125Z,10.70
2023-03-31T20:34:02.812Z,11.00
2023-03-31T20:36:32.168Z,11.20
2023-03-31T20:39:00.958Z,11.30
2023-03-31T20:41:29.891Z,11.60
2023-03-31T20:43:58.332Z,13.20
2023-03-31T20:46:26.769Z,13.00
2023-03-31T20:48:56.747Z,12.60
2023-03-31T20:51:32.592Z,11.50
2023-03-31T20:54:02.024Z,12.00
2023-03-31T20:56:32.615Z,12.60
2023-03-31T20:59:01.235Z,12.10
2023-03-31T21:01:31.977Z,11.80
2023-03-31T21:04:02.345Z,12.80
2023-03-31T21:06:36.521Z,12.00
2023-03-31T21:09:05.389Z,11.70
2023-03-31T21:11:34.287Z,12.10
2023-03-31T21:14:02.509Z,11.90
2023-03-31T21:16:30.752Z,13.10
2023-03-31T21:19:00.021Z,13.90
2023-03-31T21:21:29.147Z,12.30
2023-03-31T21:23:58.280Z,11.80
2023-03-31T21:26:27.208Z,12.60
2023-03-31T21:28:57.943Z,12.90
2023-03-31T21:31:27.757Z,13.30
2023-03-31T21:34:01.436Z,13.20
2023-03-31T21:36:30.452Z,14.10
2023-03-31T21:38:58.690Z,13.30
2023-03-31T21:41:30.117Z,13.80
2023-03-31T21:44:03.011Z,13.80
2023-03-31T21:46:32.919Z,13.80
2023-03-31T21:49:02.624Z,14.50
2023-03-31T21:51:30.942Z,14.30
2023-03-31T21:53:59.138Z,14.00
2023-03-31T21:56:31.950Z,12.70
2023-03-31T21:59:02.463Z,12.30
2023-03-31T22:01:31.439Z,11.60
2023-03-31T22:04:00.751Z,11.20
2023-03-31T22:06:29.595Z,11.20
2023-03-31T22:08:57.934Z,10.80
2023-03-31T22:11:31.275Z,10.50
2023-03-31T22:14:00.152Z,10.60
2023-03-31T22:16:28.966Z,11.60
2023-03-31T22:19:00.239Z,11.20
2023-03-31T22:21:43.665Z,11.10
2023-03-31T22:24:12.834Z,10.60
2023-03-31T22:26:41.202Z,10.10
2023-03-31T22:29:13.842Z,9.90
2023-03-31T22:31:42.553Z,10.00
2023-03-31T22:34:11.304Z,10.10
2023-03-31T22:36:39.667Z,10.30
2023-03-31T22:39:07.958Z,10.30
2023-03-31T22:41:36.796Z,9.90
2023-03-31T22:44:05.248Z,10.40
2023-03-31T22:46:33.486Z,11.50
2023-03-31T22:49:01.915Z,11.40
2023-03-31T22:51:30.650Z,11.70
2023-03-31T22:53:58.926Z,11.50
2023-03-31T22:56:27.936Z,11.60
2023-03-31T22:58:56.948Z,11.70
2023-03-31T23:01:26.288Z,10.10
2023-03-31T23:03:55.905Z,10.20
2023-03-31T23:06:24.200Z,10.70
2023-03-31T23:08:53.936Z,10.60
2023-03-31T23:11:23.137Z,11.00
2023-03-31T23:13:53.428Z,10.80
2023-03-31T23:16:25.851Z,10.70
2023-03-31T23:18:54.446Z,11.00
2023-03-31T23:21:24.882Z,10.40
2023-03-31T23:23:55.149Z,10.70
2023-03-31T23:26:24.617Z,10.60
2023-03-31T23:28:54.239Z,10.90
2023-03-31T23:31:24.144Z,10.10
2023-03-31T23:33:52.838Z,10.80
2023-03-31T23:36:21.549Z,11.30
2023-03-31T23:38:50.784Z,10.30
2023-03-31T23:41:19.387Z,9.60
2023-03-31T23:43:48.072Z,9.70
2023-03-31T23:46:16.773Z,9.80
2023-03-31T23:48:45.563Z,10.30
2023-03-31T23:51:15.214Z,10.50
2023-03-31T23:53:44.790Z,10.40
2023-03-31T23:56:17.162Z,10.40
2023-03-31T23:58:45.465Z,9.50
